Time;durP1;ratioP1;P1;durP2;ratioP2;P2;SDS_P1;SDS_P2;PMS_P1;PMS_P2;Temp;Humidity;BMP_temperature;BMP_pressure;BME280_temperature;BME280_humidity;BME280_pressure;Samples;Min_cycle;Max_cycle;Signal;HPM_P1;HPM_P2
2021/12/24 00:02:34;;;;;;;48.50;26.50;;;;;;;-0.04;72.76;98677.17;126510;1315;107917;-82
2021/12/24 00:05:40;;;;;;;50.50;26.90;;;;;;;-0.06;72.85;98658.95;126899;1311;108882;-83
2021/12/24 00:08:46;;;;;;;42.30;22.40;;;;;;;-0.07;72.90;98650.04;126695;1315;107522;-85
2021/12/24 00:11:58;;;;;;;43.90;24.40;;;;;;;-0.04;72.96;98646.62;126528;1312;109037;-84
2021/12/24 00:15:18;;;;;;;39.90;23.40;;;;;;;0.01;73.06;98643.41;127015;1314;106668;-85
2021/12/24 00:18:36;;;;;;;46.20;25.80;;;;;;;0.06;72.83;98634.08;126732;1311;109812;-84
2021/12/24 00:22:20;;;;;;;42.50;24.70;;;;;;;0.08;72.86;98629.19;126659;1312;108892;-84
2021/12/24 00:35:35;;;;;;;49.50;26.30;;;;;;;-0.02;73.06;98604.13;126805;1315;106511;-84
2021/12/24 00:38:41;;;;;;;47.20;25.10;;;;;;;-0.05;73.18;98594.45;126654;1312;107807;-81
2021/12/24 00:41:47;;;;;;;45.10;23.00;;;;;;;-0.06;73.20;98581.55;126735;1312;108826;-80
2021/12/24 00:44:52;;;;;;;48.80;25.10;;;;;;;-0.01;73.24;98578.21;126515;1310;107731;-83
2021/12/24 00:48:01;;;;;;;44.60;24.40;;;;;;;0.05;73.15;98573.49;126630;1312;107718;-82
2021/12/24 00:51:20;;;;;;;51.20;27.80;;;;;;;0.07;73.25;98560.27;126580;1311;108963;-82
2021/12/24 00:57:50;;;;;;;45.30;24.80;;;;;;;0.11;73.24;98557.98;126640;1312;108932;-83
2021/12/24 01:00:56;;;;;;;48.00;26.30;;;;;;;0.08;73.29;98555.77;126528;1314;108920;-84
2021/12/24 01:04:02;;;;;;;42.10;24.00;;;;;;;0.04;73.27;98551.94;126709;1310;106683;-82
2021/12/24 01:07:09;;;;;;;48.00;25.60;;;;;;;-0.03;73.24;98542.67;126642;1312;108975;-84
2021/12/24 01:10:17;;;;;;;45.60;25.40;;;;;;;-0.07;73.39;98533.42;126783;1310;108791;-83
2021/12/24 01:13:23;;;;;;;49.20;24.80;;;;;;;-0.07;73.25;98532.01;126638;1309;108701;-84
2021/12/24 01:16:34;;;;;;;90.40;47.30;;;;;;;0.01;73.74;98525.98;126824;1310;108963;-84
2021/12/24 01:19:43;;;;;;;58.40;30.70;;;;;;;0.10;73.75;98522.56;126608;1312;108853;-84
2021/12/24 01:26:19;;;;;;;44.70;24.70;;;;;;;0.22;73.49;98516.48;126661;1317;108953;-84
2021/12/24 01:29:44;;;;;;;41.50;23.70;;;;;;;0.23;73.57;98499.75;126577;1316;107945;-84
2021/12/24 01:39:53;;;;;;;41.50;23.00;;;;;;;0.18;73.56;98488.81;126645;1312;109087;-79
2021/12/24 01:42:58;;;;;;;39.90;22.60;;;;;;;0.14;73.72;98479.17;126595;1311;108736;-81
2021/12/24 01:46:04;;;;;;;42.10;23.80;;;;;;;0.12;73.63;98462.93;126714;1311;108835;-82
2021/12/24 01:49:09;;;;;;;52.90;29.70;;;;;;;0.08;73.77;98460.16;126418;1315;108878;-83
2021/12/24 01:52:15;;;;;;;47.40;25.00;;;;;;;0.06;73.93;98446.50;126396;1312;108823;-83
2021/12/24 01:55:27;;;;;;;48.10;24.60;;;;;;;0.07;73.77;98441.67;126572;1311;108938;-84
2021/12/24 01:58:33;;;;;;;74.50;33.20;;;;;;;0.12;73.97;98429.90;126623;1312;107437;-84
2021/12/24 02:01:38;;;;;;;44.40;25.80;;;;;;;0.20;73.94;98435.67;126530;1312;107900;-84
2021/12/24 02:04:44;;;;;;;61.80;32.80;;;;;;;0.27;73.86;98433.64;126410;1312;108946;-84
2021/12/24 02:07:49;;;;;;;46.10;24.90;;;;;;;0.31;73.86;98428.93;126592;1310;107279;-83
2021/12/24 02:10:56;;;;;;;39.40;22.00;;;;;;;0.32;73.75;98420.80;126674;1315;107857;-83
2021/12/24 02:14:04;;;;;;;43.00;24.20;;;;;;;0.33;73.83;98419.17;126639;1314;108942;-83
2021/12/24 02:17:47;;;;;;;50.00;29.90;;;;;;;0.31;73.76;98409.89;126449;1312;152346;-84
2021/12/24 02:31:10;;;;;;;49.10;27.00;;;;;;;0.19;74.16;98404.13;126712;1310;108728;-79
2021/12/24 02:34:15;;;;;;;99.40;52.50;;;;;;;0.22;74.21;98402.45;126342;1311;108935;-81
2021/12/24 02:37:21;;;;;;;57.20;32.00;;;;;;;0.27;74.28;98402.17;126399;1312;108784;-82
2021/12/24 02:40:27;;;;;;;46.80;27.60;;;;;;;0.36;74.29;98400.25;126663;1311;108929;-85
2021/12/24 02:43:32;;;;;;;40.20;23.70;;;;;;;0.44;74.14;98385.77;126533;1312;108985;-85
2021/12/24 02:46:52;;;;;;;43.30;26.20;;;;;;;0.48;74.13;98379.09;126747;1312;108772;-85
2021/12/24 02:56:50;;;;;;;64.90;32.90;;;;;;;0.46;74.41;98355.09;126728;1311;108846;-84
2021/12/24 03:00:00;;;;;;;109.90;52.20;;;;;;;0.43;74.59;98346.26;126634;1310;108715;-82
2021/12/24 03:03:06;;;;;;;50.40;27.60;;;;;;;0.42;74.56;98349.16;126618;1311;109502;-78
2021/12/24 03:06:12;;;;;;;43.70;23.70;;;;;;;0.46;74.61;98343.91;126624;1311;108738;-81
2021/12/24 03:09:19;;;;;;;36.00;19.80;;;;;;;0.51;74.65;98332.44;126725;1312;108855;-81
2021/12/24 03:12:25;;;;;;;37.40;21.50;;;;;;;0.59;74.56;98331.55;126385;1311;108782;-82
2021/12/24 03:15:30;;;;;;;38.40;22.20;;;;;;;0.66;74.56;98317.44;126453;1312;107943;-82
2021/12/24 03:18:40;;;;;;;36.80;21.00;;;;;;;0.71;74.54;98314.88;126847;1312;108878;-87
2021/12/24 03:21:52;;;;;;;34.40;20.30;;;;;;;0.74;74.61;98307.75;126609;1312;108799;-86
2021/12/24 03:24:58;;;;;;;34.50;20.10;;;;;;;0.76;74.69;98301.60;126437;1312;108947;-82
2021/12/24 03:28:03;;;;;;;35.90;21.20;;;;;;;0.75;74.77;98297.16;126266;1311;107756;-84
2021/12/24 03:31:10;;;;;;;38.10;21.60;;;;;;;0.74;74.82;98289.89;126433;1312;108001;-84
2021/12/24 03:34:19;;;;;;;36.30;21.70;;;;;;;0.72;74.85;98291.88;126423;1314;108858;-84
2021/12/24 03:37:25;;;;;;;40.60;23.10;;;;;;;0.68;74.93;98289.79;126433;1312;108738;-82
2021/12/24 03:40:30;;;;;;;40.10;23.20;;;;;;;0.67;74.99;98283.90;126608;1311;108923;-83
2021/12/24 03:43:36;;;;;;;39.70;21.40;;;;;;;0.68;75.08;98284.14;126262;1311;106768;-83
2021/12/24 03:46:51;;;;;;;32.30;18.50;;;;;;;0.74;75.14;98292.55;126495;1311;108817;-83
2021/12/24 03:50:03;;;;;;;30.60;18.90;;;;;;;0.82;75.20;98288.70;126584;1312;106887;-86
2021/12/24 03:56:30;;;;;;;39.30;23.00;;;;;;;0.94;75.18;98282.67;126366;1312;108765;-85
2021/12/24 03:59:40;;;;;;;33.00;20.00;;;;;;;0.97;75.34;98279.48;126418;1312;108806;-86
2021/12/24 04:03:15;;;;;;;31.70;19.60;;;;;;;0.96;75.41;98268.48;126418;1311;108918;-85
2021/12/24 04:06:20;;;;;;;32.40;19.20;;;;;;;0.96;75.40;98257.29;126450;1314;109048;-85
2021/12/24 04:10:01;;;;;;;31.80;19.60;;;;;;;0.95;75.37;98255.10;125798;1318;108842;-83
2021/12/24 04:13:25;;;;;;;36.70;20.40;;;;;;;0.91;75.47;98264.42;126512;1311;108995;-80
2021/12/24 04:16:31;;;;;;;35.90;20.70;;;;;;;0.89;75.57;98258.29;126549;1312;107908;-87
2021/12/24 04:26:23;;;;;;;29.00;18.20;;;;;;;1.01;75.57;98244.45;126596;1311;108810;-89
2021/12/24 04:29:29;;;;;;;31.80;18.50;;;;;;;1.04;75.54;98230.11;126759;1314;107679;-89
2021/12/24 04:32:50;;;;;;;30.00;18.60;;;;;;;1.05;75.63;98235.77;126747;1311;107889;-86
2021/12/24 04:36:14;;;;;;;30.20;19.10;;;;;;;1.06;75.77;98242.58;126762;1311;107825;-87
2021/12/24 04:39:42;;;;;;;31.70;19.30;;;;;;;1.07;75.65;98243.12;126644;1314;108993;-86
2021/12/24 04:53:25;;;;;;;52.70;35.70;;;;;;;1.17;76.00;98229.64;126532;1312;108935;-86
2021/12/24 05:03:27;;;;;;;39.50;24.10;;;;;;;1.29;75.96;98228.33;126648;1312;109059;-79
2021/12/24 05:06:37;;;;;;;46.10;26.40;;;;;;;1.31;76.05;98217.83;126479;1312;107747;-83
2021/12/24 05:09:44;;;;;;;53.90;33.30;;;;;;;1.31;75.90;98220.10;126519;1314;108928;-82
2021/12/24 05:12:49;;;;;;;34.90;20.70;;;;;;;1.30;75.87;98226.15;126432;1311;108991;-82
2021/12/24 05:16:05;;;;;;;38.60;22.70;;;;;;;1.29;76.10;98238.86;126591;1315;108832;-80
2021/12/24 05:23:20;;;;;;;30.50;17.70;;;;;;;1.38;76.16;98236.94;125884;1315;107920;-81
2021/12/24 05:26:25;;;;;;;31.00;19.70;;;;;;;1.45;76.17;98233.68;126407;1317;108980;-80
2021/12/24 05:29:31;;;;;;;32.10;20.00;;;;;;;1.50;76.33;98234.21;126492;1311;107143;-80
2021/12/24 05:32:39;;;;;;;30.90;19.10;;;;;;;1.54;76.11;98240.36;126388;1312;108768;-79
2021/12/24 05:35:45;;;;;;;28.20;17.20;;;;;;;1.54;76.10;98230.73;126874;1311;107520;-83
2021/12/24 05:38:51;;;;;;;27.00;17.50;;;;;;;1.53;76.26;98229.23;126693;1312;108380;-83
2021/12/24 05:41:56;;;;;;;51.80;28.50;;;;;;;1.51;76.24;98232.05;126930;1312;108811;-89
2021/12/24 05:45:06;;;;;;;54.00;29.30;;;;;;;1.49;76.42;98232.52;127283;1312;108799;-87
2021/12/24 05:48:47;;;;;;;47.60;26.70;;;;;;;1.50;76.62;98237.90;126419;1318;107557;-91
2021/12/24 05:51:53;;;;;;;77.60;42.60;;;;;;;1.58;76.45;98242.81;127117;1311;107792;-91
2021/12/24 05:55:12;;;;;;;56.50;34.10;;;;;;;1.63;76.50;98231.10;127084;1311;108755;-91
2021/12/24 05:58:43;;;;;;;36.80;24.30;;;;;;;1.65;76.63;98233.86;126719;1311;107821;-92
2021/12/24 06:01:50;;;;;;;33.20;21.80;;;;;;;1.58;76.67;98226.84;127041;1311;107835;-90
2021/12/24 06:04:56;;;;;;;28.30;18.20;;;;;;;1.65;76.56;98232.78;127012;1315;107834;-94
2021/12/24 06:08:06;;;;;;;27.60;17.70;;;;;;;1.65;76.63;98228.31;127108;1311;105918;-91
2021/12/24 06:11:11;;;;;;;47.80;26.00;;;;;;;1.59;76.66;98224.45;127261;1311;107765;-91
2021/12/24 06:14:17;;;;;;;31.80;17.90;;;;;;;1.55;76.87;98224.77;127013;1311;105772;-84
2021/12/24 06:17:23;;;;;;;23.40;13.80;;;;;;;1.55;76.94;98219.33;126664;1312;109042;-85
2021/12/24 06:20:29;;;;;;;40.40;23.80;;;;;;;1.61;76.93;98218.27;126962;1312;107673;-86
2021/12/24 06:23:37;;;;;;;41.20;25.60;;;;;;;1.68;76.97;98213.04;126729;1311;107249;-85
2021/12/24 06:26:43;;;;;;;28.40;17.80;;;;;;;1.73;76.91;98208.03;126753;1310;108906;-86
2021/12/24 06:29:48;;;;;;;23.90;15.60;;;;;;;1.74;76.79;98199.36;126623;1311;107207;-83
2021/12/24 06:32:54;;;;;;;24.30;15.20;;;;;;;1.74;76.96;98205.14;126865;1311;108746;-82
2021/12/24 06:35:59;;;;;;;30.30;19.10;;;;;;;1.74;76.99;98207.09;126723;1310;109036;-82
2021/12/24 06:39:07;;;;;;;83.00;44.90;;;;;;;1.71;77.12;98206.34;126605;1310;107901;-80
2021/12/24 06:42:12;;;;;;;217.00;99.80;;;;;;;1.70;77.06;98209.20;126577;1311;107769;-81
2021/12/24 06:45:22;;;;;;;206.00;92.20;;;;;;;1.71;77.08;98205.58;126699;1310;108968;-78
2021/12/24 06:48:27;;;;;;;121.40;58.40;;;;;;;1.75;77.13;98202.03;126753;1314;107654;-79
2021/12/24 06:51:32;;;;;;;196.30;93.40;;;;;;;1.81;77.13;98197.95;126762;1310;108931;-81
2021/12/24 06:54:38;;;;;;;115.70;56.80;;;;;;;1.85;77.20;98198.27;126498;1311;108784;-78
2021/12/24 06:57:48;;;;;;;112.50;58.20;;;;;;;1.87;77.06;98190.06;126400;1311;108761;-89
2021/12/24 07:00:53;;;;;;;63.30;35.70;;;;;;;1.89;77.26;98189.72;126718;1312;108900;-84
2021/12/24 07:03:59;;;;;;;72.40;41.10;;;;;;;1.88;77.12;98182.89;126743;1312;109207;-78
2021/12/24 07:07:05;;;;;;;48.00;25.70;;;;;;;1.86;77.14;98195.38;126666;1312;107132;-82
2021/12/24 07:10:11;;;;;;;51.10;29.80;;;;;;;1.84;77.20;98202.30;126642;1311;108812;-84
2021/12/24 07:13:16;;;;;;;46.10;25.80;;;;;;;1.85;77.29;98206.75;126786;1311;108797;-84
2021/12/24 07:16:22;;;;;;;44.40;26.30;;;;;;;1.89;77.33;98212.66;126635;1313;107926;-83
2021/12/24 07:19:28;;;;;;;59.30;40.40;;;;;;;1.94;77.31;98211.64;126841;1312;108841;-82
2021/12/24 07:22:34;;;;;;;67.00;38.90;;;;;;;1.98;77.34;98216.14;126616;1315;107862;-86
2021/12/24 07:25:39;;;;;;;38.30;23.60;;;;;;;2.00;77.29;98214.23;126624;1312;108966;-87
2021/12/24 07:28:45;;;;;;;33.90;19.80;;;;;;;2.01;77.29;98207.99;126577;1312;108819;-85
2021/12/24 07:31:50;;;;;;;28.10;17.20;;;;;;;2.01;77.32;98208.67;126856;1311;108954;-84
2021/12/24 07:34:55;;;;;;;26.40;16.30;;;;;;;2.01;77.40;98208.21;126676;1311;108778;-84
2021/12/24 07:38:01;;;;;;;27.30;16.00;;;;;;;1.99;77.35;98210.80;126842;1312;108810;-88
2021/12/24 07:41:19;;;;;;;26.20;17.10;;;;;;;2.01;77.41;98217.47;126656;1312;109054;-89
2021/12/24 07:44:30;;;;;;;27.10;17.00;;;;;;;2.07;77.34;98226.02;126519;1312;107894;-86
2021/12/24 07:47:39;;;;;;;26.90;16.90;;;;;;;2.10;77.37;98232.38;126682;1315;108627;-85
2021/12/24 07:54:10;;;;;;;24.20;16.40;;;;;;;2.19;77.34;98228.86;126571;1311;108536;-83
2021/12/24 07:57:18;;;;;;;31.80;20.70;;;;;;;2.20;77.29;98231.79;126701;1311;108402;-91
2021/12/24 08:00:26;;;;;;;40.10;20.80;;;;;;;2.12;77.34;98238.88;127021;1317;105621;-86
2021/12/24 08:03:31;;;;;;;38.70;23.40;;;;;;;2.06;77.41;98240.63;126961;1312;107866;-81
2021/12/24 08:06:37;;;;;;;28.80;17.30;;;;;;;2.06;77.56;98240.10;126925;1312;107909;-82
2021/12/24 08:09:43;;;;;;;22.70;13.60;;;;;;;2.11;77.50;98234.59;126594;1312;109950;-84
2021/12/24 08:12:49;;;;;;;26.80;15.80;;;;;;;2.17;77.51;98246.30;126763;1312;107488;-78
2021/12/24 08:15:55;;;;;;;24.60;15.40;;;;;;;2.23;77.50;98244.63;126736;1312;108784;-78
2021/12/24 08:19:01;;;;;;;24.50;15.40;;;;;;;2.25;77.41;98236.90;126598;1312;108908;-77
2021/12/24 08:22:10;;;;;;;24.40;15.50;;;;;;;2.21;77.34;98226.90;126634;1312;108844;-78
2021/12/24 08:25:15;;;;;;;25.50;15.60;;;;;;;2.18;77.46;98229.37;126683;1316;108761;-77
2021/12/24 08:28:21;;;;;;;23.40;15.20;;;;;;;2.19;77.43;98217.48;126613;1312;107806;-78
2021/12/24 08:31:27;;;;;;;25.00;15.60;;;;;;;2.20;77.44;98215.48;126428;1312;107785;-79
2021/12/24 08:34:32;;;;;;;30.20;16.90;;;;;;;2.18;77.40;98208.48;126310;1311;107820;-81
2021/12/24 08:37:39;;;;;;;25.40;13.80;;;;;;;2.18;77.42;98213.91;126664;1315;107830;-81
2021/12/24 08:40:45;;;;;;;25.00;14.60;;;;;;;2.24;77.54;98203.45;126676;1316;107819;-82
2021/12/24 08:43:51;;;;;;;20.40;13.50;;;;;;;2.33;77.50;98188.03;126668;1315;107792;-82
2021/12/24 08:47:00;;;;;;;21.70;13.40;;;;;;;2.44;77.47;98192.72;126668;1312;107836;-81
2021/12/24 08:50:08;;;;;;;138.30;80.00;;;;;;;2.46;77.34;98190.11;126793;1315;106948;-81
2021/12/24 08:53:14;;;;;;;128.00;61.30;;;;;;;2.45;77.36;98184.96;126809;1312;108537;-82
2021/12/24 08:56:22;;;;;;;148.10;70.20;;;;;;;2.48;77.37;98183.35;126751;1312;107886;-80
2021/12/24 08:59:27;;;;;;;208.10;93.70;;;;;;;2.49;77.20;98188.33;126584;1312;108698;-81
2021/12/24 09:02:33;;;;;;;109.80;57.30;;;;;;;2.48;77.25;98186.23;126622;1315;106805;-82
2021/12/24 09:05:38;;;;;;;39.80;25.90;;;;;;;2.46;77.36;98183.06;126969;1312;107715;-82
2021/12/24 09:08:44;;;;;;;40.50;25.70;;;;;;;2.53;77.33;98176.77;126790;1315;108926;-82
2021/12/24 09:11:50;;;;;;;47.70;25.60;;;;;;;2.63;77.31;98181.33;126808;1311;109188;-84
2021/12/24 09:14:55;;;;;;;35.30;21.30;;;;;;;2.74;77.17;98184.66;126656;1315;108811;-85
2021/12/24 09:18:03;;;;;;;30.60;19.20;;;;;;;2.79;77.09;98176.14;126663;1314;109035;-76
2021/12/24 09:21:15;;;;;;;27.80;18.90;;;;;;;2.81;77.06;98155.52;126827;1316;108747;-81
2021/12/24 09:24:21;;;;;;;28.30;19.50;;;;;;;2.81;76.96;98166.27;126849;1315;107745;-81
2021/12/24 09:27:26;;;;;;;26.60;16.80;;;;;;;2.82;77.02;98167.36;126790;1315;107737;-85
2021/12/24 09:30:32;;;;;;;29.80;17.70;;;;;;;2.74;77.01;98166.91;126581;1312;108627;-83
2021/12/24 09:33:38;;;;;;;27.80;16.40;;;;;;;2.73;77.21;98159.41;126661;1311;108809;-81
2021/12/24 09:36:44;;;;;;;23.60;15.10;;;;;;;2.81;77.21;98165.75;126500;1312;108935;-81
2021/12/24 09:39:49;;;;;;;26.80;18.80;;;;;;;2.91;77.22;98166.59;126547;1311;109045;-79
2021/12/24 09:42:55;;;;;;;26.30;19.60;;;;;;;3.00;77.12;98157.48;126506;1315;108804;-80
2021/12/24 09:46:00;;;;;;;23.10;15.80;;;;;;;3.03;77.07;98154.34;126528;1311;107869;-82
2021/12/24 09:49:06;;;;;;;24.70;17.20;;;;;;;3.04;76.98;98152.66;126731;1312;108946;-81
2021/12/24 09:52:12;;;;;;;22.90;15.20;;;;;;;3.01;77.01;98152.92;126681;1312;108544;-82
2021/12/24 09:55:21;;;;;;;25.00;16.50;;;;;;;2.98;77.10;98155.34;126704;1317;107739;-78
2021/12/24 09:58:26;;;;;;;21.60;15.60;;;;;;;3.01;77.05;98148.50;126808;1317;108872;-82
2021/12/24 10:01:35;;;;;;;26.90;16.60;;;;;;;3.02;77.08;98139.39;126622;1316;108797;-81
2021/12/24 10:04:41;;;;;;;22.20;14.50;;;;;;;2.98;77.08;98144.89;126834;1312;108882;-83
2021/12/24 10:07:46;;;;;;;20.50;12.50;;;;;;;3.01;77.11;98139.22;126545;1312;108833;-82
2021/12/24 10:10:54;;;;;;;19.70;12.90;;;;;;;3.13;77.10;98129.81;126880;1317;109027;-86
2021/12/24 10:14:07;;;;;;;21.60;14.00;;;;;;;3.24;77.02;98125.31;126614;1316;107812;-86
2021/12/24 10:17:20;;;;;;;21.30;14.20;;;;;;;3.26;77.06;98119.17;126624;1312;177709;-81
2021/12/24 10:20:26;;;;;;;24.10;15.50;;;;;;;3.27;76.82;98113.89;126855;1316;109044;-84
2021/12/24 10:23:47;;;;;;;22.20;14.60;;;;;;;3.25;76.98;98110.33;126630;1312;107845;-83
2021/12/24 10:26:54;;;;;;;69.40;39.90;;;;;;;3.22;76.94;98106.66;126856;1312;108936;-81
2021/12/24 10:30:00;;;;;;;148.40;77.70;;;;;;;3.26;77.04;98107.90;126711;1311;108741;-85
2021/12/24 10:33:13;;;;;;;60.20;34.80;;;;;;;3.27;76.91;98101.44;126831;1315;108759;-78
2021/12/24 10:36:19;;;;;;;30.90;21.30;;;;;;;3.31;77.00;98090.10;126703;1312;107869;-82
2021/12/24 10:39:26;;;;;;;36.30;24.90;;;;;;;3.41;77.06;98081.92;126760;1312;108941;-80
2021/12/24 10:42:35;;;;;;;53.40;30.00;;;;;;;3.54;76.85;98080.55;126727;1312;108698;-80
2021/12/24 10:45:44;;;;;;;63.40;41.10;;;;;;;3.61;76.77;98081.57;126704;1317;107624;-79
2021/12/24 10:49:03;;;;;;;46.90;27.80;;;;;;;3.69;76.73;98072.48;126896;1311;108523;-83
2021/12/24 10:52:16;;;;;;;47.90;29.90;;;;;;;3.75;76.72;98070.73;126667;1312;108308;-77
2021/12/24 10:55:24;;;;;;;47.20;28.20;;;;;;;3.74;76.59;98074.92;126688;1312;108429;-75
2021/12/24 10:58:31;;;;;;;35.60;21.60;;;;;;;3.68;76.57;98068.61;126657;1310;108892;-77
2021/12/24 11:01:37;;;;;;;63.50;38.20;;;;;;;3.68;76.68;98067.23;126470;1317;107861;-74
2021/12/24 11:04:42;;;;;;;67.70;41.30;;;;;;;3.69;76.74;98059.65;126464;1312;108833;-75
2021/12/24 11:07:48;;;;;;;55.70;34.70;;;;;;;3.70;76.83;98045.25;126336;1318;108759;-75
2021/12/24 11:10:56;;;;;;;37.40;23.10;;;;;;;3.73;76.80;98058.27;126461;1317;108608;-75
2021/12/24 11:14:02;;;;;;;38.90;23.30;;;;;;;3.73;76.75;98053.73;126371;1317;108750;-75
2021/12/24 11:17:09;;;;;;;29.70;18.00;;;;;;;3.74;76.76;98051.17;126514;1312;108897;-79
2021/12/24 11:20:15;;;;;;;32.10;19.70;;;;;;;3.79;76.73;98039.75;126629;1316;108817;-77
2021/12/24 11:23:23;;;;;;;31.70;19.50;;;;;;;3.85;76.58;98039.26;126351;1311;108848;-74
2021/12/24 11:26:32;;;;;;;29.10;18.20;;;;;;;3.87;76.64;98047.34;126475;1317;109124;-75
2021/12/24 11:29:38;;;;;;;31.90;20.20;;;;;;;3.83;76.57;98058.45;126409;1312;107746;-74
2021/12/24 11:32:45;;;;;;;64.50;32.90;;;;;;;3.77;76.49;98051.88;126370;1316;107570;-75
2021/12/24 11:35:52;;;;;;;38.10;21.70;;;;;;;3.69;76.57;98040.06;126335;1309;105759;-72
2021/12/24 11:39:02;;;;;;;27.40;16.30;;;;;;;3.69;76.79;98028.45;126298;1315;108771;-75
2021/12/24 11:42:13;;;;;;;24.10;14.10;;;;;;;3.69;76.75;98022.98;126271;1315;107482;-74
2021/12/24 11:45:19;;;;;;;22.20;13.90;;;;;;;3.70;76.86;98017.85;126425;1312;108885;-73
2021/12/24 11:48:26;;;;;;;22.30;13.60;;;;;;;3.72;76.70;98018.48;126507;1317;109574;-73
2021/12/24 11:51:40;;;;;;;22.40;14.30;;;;;;;3.80;76.72;98016.00;126335;1318;108669;-72
2021/12/24 11:54:46;;;;;;;55.90;21.10;;;;;;;3.84;76.64;98025.80;126280;1317;108749;-75
2021/12/24 11:57:59;;;;;;;23.10;14.00;;;;;;;3.83;76.71;98027.38;126359;1316;109171;-69
2021/12/24 12:01:07;;;;;;;20.70;13.20;;;;;;;3.79;76.63;98033.04;126200;1314;107636;-70
2021/12/24 12:04:16;;;;;;;23.20;14.10;;;;;;;3.72;76.65;98039.88;126270;1316;107810;-71
2021/12/24 12:07:26;;;;;;;23.30;14.80;;;;;;;3.66;76.66;98046.40;126456;1315;105957;-72
2021/12/24 12:10:54;;;;;;;207.40;90.40;;;;;;;3.58;76.67;98040.95;126476;1315;108851;-72
2021/12/24 12:14:01;;;;;;;300.40;130.00;;;;;;;3.48;76.75;98028.97;126350;1317;107689;-71
2021/12/24 12:17:07;;;;;;;83.40;40.30;;;;;;;3.41;76.92;98017.98;126308;1316;108943;-70
2021/12/24 12:20:34;;;;;;;63.90;34.40;;;;;;;3.41;76.96;98018.61;126289;1315;108724;-71
2021/12/24 12:27:28;;;;;;;98.30;50.70;;;;;;;3.52;76.92;98022.58;126290;1317;108908;-72
2021/12/24 12:30:37;;;;;;;59.10;35.10;;;;;;;3.51;76.92;98011.51;126235;1318;107639;-70
2021/12/24 12:33:44;;;;;;;42.40;28.50;;;;;;;3.53;76.96;98004.88;126473;1315;108725;-71
2021/12/24 12:36:52;;;;;;;65.20;38.30;;;;;;;3.51;76.84;97997.51;126361;1317;109898;-71
2021/12/24 12:40:06;;;;;;;65.80;49.40;;;;;;;3.48;76.85;98002.88;126417;1317;108786;-79
2021/12/24 12:43:14;;;;;;;27.10;17.80;;;;;;;3.45;76.82;98009.09;126617;1318;108733;-71
2021/12/24 12:46:27;;;;;;;54.80;36.10;;;;;;;3.40;76.98;98008.56;126601;1317;108718;-74
2021/12/24 12:49:34;;;;;;;49.40;32.60;;;;;;;3.41;77.09;98016.48;126703;1317;108771;-71
2021/12/24 12:52:41;;;;;;;85.00;55.30;;;;;;;3.44;76.98;98020.39;126670;1311;108451;-71
2021/12/24 12:55:46;;;;;;;74.60;41.40;;;;;;;3.46;77.06;98015.45;126677;1317;108932;-71
2021/12/24 12:58:57;;;;;;;35.60;22.10;;;;;;;3.48;77.02;98014.90;126698;1311;108887;-72
2021/12/24 13:02:03;;;;;;;30.40;19.80;;;;;;;3.47;76.82;98012.30;126559;1310;108907;-70
2021/12/24 13:05:16;;;;;;;28.90;18.80;;;;;;;3.46;76.95;98001.93;126330;1317;108625;-72
2021/12/24 13:08:23;;;;;;;30.60;20.00;;;;;;;3.45;76.96;98009.02;126398;1315;108892;-71
2021/12/24 13:11:34;;;;;;;27.70;16.40;;;;;;;3.42;76.90;98008.42;126567;1317;107628;-71
2021/12/24 13:14:40;;;;;;;46.30;32.80;;;;;;;3.41;76.91;98006.31;126342;1318;107366;-72
2021/12/24 13:17:46;;;;;;;22.10;13.70;;;;;;;3.37;76.79;97999.55;126461;1311;108808;-73
2021/12/24 13:24:18;;;;;;;28.10;16.60;;;;;;;3.41;77.05;97997.89;126516;1317;109030;-73
2021/12/24 13:27:27;;;;;;;29.40;17.80;;;;;;;3.45;76.98;97995.88;126538;1314;107514;-73
2021/12/24 13:30:33;;;;;;;45.90;25.80;;;;;;;3.46;77.00;97994.66;126304;1316;108716;-75
2021/12/24 13:33:39;;;;;;;45.20;26.30;;;;;;;3.46;77.03;97989.91;126309;1317;109131;-70
2021/12/24 13:36:44;;;;;;;26.90;16.80;;;;;;;3.44;76.92;97987.58;126323;1315;108834;-71
2021/12/24 13:39:51;;;;;;;23.70;14.30;;;;;;;3.40;77.08;97976.86;126255;1317;108958;-71
2021/12/24 13:42:59;;;;;;;26.30;16.00;;;;;;;3.37;77.23;97970.70;126380;1316;108759;-71
2021/12/24 13:46:09;;;;;;;30.70;17.00;;;;;;;3.30;77.27;97982.05;126201;1316;108707;-73
2021/12/24 13:49:33;;;;;;;47.90;23.70;;;;;;;3.28;77.49;97973.39;126317;1318;108805;-71
2021/12/24 13:56:05;;;;;;;23.20;12.10;;;;;;;3.28;77.69;97977.15;126543;1311;108724;-72
2021/12/24 13:59:12;;;;;;;26.80;16.80;;;;;;;3.26;77.54;97970.82;126436;1316;108787;-72
2021/12/24 14:02:18;;;;;;;30.50;16.20;;;;;;;3.28;77.81;97968.88;126477;1314;109800;-72
2021/12/24 14:05:24;;;;;;;14.90;9.90;;;;;;;3.24;77.78;97977.20;126307;1318;108711;-71
2021/12/24 14:08:32;;;;;;;12.20;8.00;;;;;;;3.18;77.95;97985.06;126334;1314;108614;-71
2021/12/24 14:11:39;;;;;;;16.20;9.30;;;;;;;3.10;78.04;97976.52;126409;1317;108700;-72
2021/12/24 14:14:51;;;;;;;85.80;45.90;;;;;;;3.08;78.19;97959.39;126314;1314;108873;-71
2021/12/24 14:18:18;;;;;;;85.70;42.70;;;;;;;3.09;78.06;97938.31;126542;1318;108864;-73
2021/12/24 14:21:46;;;;;;;123.00;61.80;;;;;;;3.14;78.05;97947.96;126374;1310;109803;-73
2021/12/24 14:24:56;;;;;;;104.80;54.10;;;;;;;3.13;78.09;97961.28;126305;1316;108703;-73
2021/12/24 14:28:02;;;;;;;170.10;90.70;;;;;;;3.08;78.34;97969.23;126398;1315;108495;-74
2021/12/24 14:31:08;;;;;;;120.50;61.50;;;;;;;3.01;78.46;97973.66;126315;1312;107947;-72
2021/12/24 14:34:13;;;;;;;121.50;63.60;;;;;;;2.94;78.50;97972.20;126277;1314;109216;-72
2021/12/24 14:37:24;;;;;;;120.10;62.30;;;;;;;2.94;78.54;97954.36;126335;1316;107738;-74
2021/12/24 14:40:31;;;;;;;173.20;89.60;;;;;;;3.01;78.47;97962.97;126442;1315;107053;-73
2021/12/24 14:43:37;;;;;;;106.60;52.50;;;;;;;3.05;78.54;97961.27;126433;1317;109906;-72
2021/12/24 14:46:58;;;;;;;95.20;45.50;;;;;;;3.06;78.55;97971.50;126559;1315;108594;-76
2021/12/24 14:50:11;;;;;;;98.00;45.90;;;;;;;3.05;78.59;97966.73;126456;1312;108782;-77
2021/12/24 14:53:21;;;;;;;68.50;36.20;;;;;;;3.02;78.50;97974.03;126541;1318;108983;-75
2021/12/24 14:56:36;;;;;;;59.80;31.50;;;;;;;2.97;78.76;97954.00;126432;1316;108841;-78
2021/12/24 14:59:41;;;;;;;76.80;43.40;;;;;;;2.95;78.91;97935.75;126485;1312;106870;-77
2021/12/24 15:02:49;;;;;;;66.90;37.20;;;;;;;2.94;78.91;97959.45;126527;1312;108958;-77
2021/12/24 15:05:54;;;;;;;22.40;13.30;;;;;;;2.96;79.36;97965.74;126395;1310;108819;-76
2021/12/24 15:09:04;;;;;;;39.30;23.50;;;;;;;2.94;79.19;97967.09;126372;1310;107859;-77
2021/12/24 15:12:22;;;;;;;51.80;28.60;;;;;;;2.94;79.40;97965.52;126449;1310;105594;-78
2021/12/24 15:15:28;;;;;;;31.80;20.50;;;;;;;2.88;79.75;97967.38;126411;1317;109061;-78
2021/12/24 15:18:34;;;;;;;40.90;25.20;;;;;;;2.78;79.53;97963.92;126365;1316;108715;-79
2021/12/24 15:21:40;;;;;;;39.10;23.50;;;;;;;2.73;79.72;97961.94;126361;1312;108722;-78
2021/12/24 15:24:45;;;;;;;58.30;30.70;;;;;;;2.74;79.84;97959.44;126345;1310;108486;-79
2021/12/24 15:27:53;;;;;;;25.80;15.00;;;;;;;2.73;79.81;97971.23;126425;1311;108843;-79
2021/12/24 15:31:00;;;;;;;35.70;22.80;;;;;;;2.81;79.65;97973.30;126383;1310;107474;-79
2021/12/24 15:34:06;;;;;;;20.00;11.70;;;;;;;2.86;79.54;97961.17;126424;1310;109209;-79
2021/12/24 15:37:11;;;;;;;26.50;18.70;;;;;;;2.91;79.52;97949.20;126395;1311;108917;-79
2021/12/24 15:40:17;;;;;;;26.20;15.40;;;;;;;2.91;79.48;97960.60;126425;1313;108825;-77
2021/12/24 15:43:24;;;;;;;24.80;13.90;;;;;;;2.92;79.55;97962.61;126348;1311;108804;-78
2021/12/24 15:46:30;;;;;;;23.30;13.30;;;;;;;2.93;79.61;97962.13;126551;1311;108670;-78